createdAt,value
2018-04-11T00:00:57.103Z,0.10
2018-04-11T00:01:56.965Z,0.20
2018-04-11T00:02:56.954Z,0.10
2018-04-11T00:03:56.813Z,0.10
2018-04-11T00:04:56.817Z,0.20
2018-04-11T00:05:56.657Z,0.10
2018-04-11T00:06:56.635Z,0.10
2018-04-11T00:07:56.506Z,0.10
2018-04-11T00:08:56.539Z,0.10
2018-04-11T00:09:56.338Z,0.10
2018-04-11T00:10:56.351Z,0.10
2018-04-11T00:11:56.188Z,0.10
2018-04-11T00:12:56.191Z,0.10
2018-04-11T00:13:56.013Z,0.10
2018-04-11T00:14:56.075Z,0.10
2018-04-11T00:15:55.861Z,0.10
2018-04-11T00:16:55.881Z,0.10
2018-04-11T00:17:55.731Z,0.20
2018-04-11T00:18:55.690Z,0.10
2018-04-11T00:19:55.554Z,0.10
2018-04-11T00:20:55.599Z,0.10
2018-04-11T00:21:55.399Z,0.10
2018-04-11T00:22:55.407Z,0.20
2018-04-11T00:23:55.250Z,0.20
2018-04-11T00:24:55.217Z,0.10
2018-04-11T00:25:55.104Z,0.10
2018-04-11T00:26:55.126Z,0.20
2018-04-11T00:27:54.925Z,0.10
2018-04-11T00:28:55.068Z,0.10
2018-04-11T00:29:54.755Z,0.10
2018-04-11T00:30:54.751Z,0.10
2018-04-11T00:31:54.600Z,0.10
2018-04-11T00:32:54.541Z,0.10
2018-04-11T00:33:54.450Z,0.20
2018-04-11T00:34:54.456Z,0.20
2018-04-11T00:35:54.269Z,0.10
2018-04-11T00:36:54.316Z,0.10
2018-04-11T00:37:54.106Z,0.10
2018-04-11T00:38:54.109Z,0.90
2018-04-11T00:39:53.974Z,0.40
2018-04-11T00:40:53.987Z,0.10
2018-04-11T00:41:53.895Z,0.10
2018-04-11T00:42:53.792Z,0.20
2018-04-11T00:43:53.658Z,0.10
2018-04-11T00:44:53.754Z,0.10
2018-04-11T00:45:53.481Z,0.20
2018-04-11T00:46:53.513Z,0.10
2018-04-11T00:47:53.329Z,0.20
2018-04-11T00:48:53.313Z,0.20
2018-04-11T00:49:53.194Z,0.10
2018-04-11T00:50:53.129Z,0.10
2018-04-11T00:51:53.012Z,0.10
2018-04-11T00:52:53.055Z,0.10
2018-04-11T00:53:52.845Z,0.10
2018-04-11T00:54:52.887Z,0.10
2018-04-11T00:55:52.691Z,0.10
2018-04-11T00:56:52.656Z,0.10
2018-04-11T00:57:52.530Z,0.10
2018-04-11T00:58:52.676Z,0.10
2018-04-11T00:59:52.430Z,0.10
2018-04-11T01:00:52.927Z,0.10
2018-04-11T01:01:52.226Z,0.10
2018-04-11T01:02:52.176Z,0.10
2018-04-11T01:03:52.059Z,0.10
2018-04-11T01:04:52.124Z,0.10
2018-04-11T01:05:51.967Z,0.10
2018-04-11T01:06:51.893Z,0.10
2018-04-11T01:07:51.884Z,0.20
2018-04-11T01:08:51.704Z,0.10
2018-04-11T01:09:51.602Z,0.10
2018-04-11T01:10:51.566Z,0.10
2018-04-11T01:11:51.418Z,0.20
2018-04-11T01:12:51.476Z,0.10
2018-04-11T01:13:51.268Z,0.20
2018-04-11T01:14:51.234Z,0.10
2018-04-11T01:15:51.120Z,0.10
2018-04-11T01:16:51.143Z,0.30
2018-04-11T01:17:50.947Z,0.10
2018-04-11T01:18:50.959Z,0.20
2018-04-11T01:19:50.783Z,0.10
2018-04-11T01:20:50.789Z,0.10
2018-04-11T01:21:50.635Z,0.10
2018-04-11T01:22:50.668Z,0.10
2018-04-11T01:23:50.467Z,0.10
2018-04-11T01:24:50.482Z,0.10
2018-04-11T01:25:50.337Z,0.10
2018-04-11T01:26:50.316Z,0.10
2018-04-11T01:27:50.163Z,0.10
2018-04-11T01:28:50.199Z,0.30
2018-04-11T01:29:49.996Z,0.10
2018-04-11T01:30:50.038Z,0.10
2018-04-11T01:31:49.839Z,0.10
2018-04-11T01:32:49.820Z,0.20
2018-04-11T01:33:49.685Z,0.10
2018-04-11T01:34:49.730Z,0.10
2018-04-11T01:35:49.521Z,0.20
2018-04-11T01:36:49.568Z,0.10
2018-04-11T01:37:49.396Z,0.10
2018-04-11T01:38:49.345Z,0.10
2018-04-11T01:39:49.216Z,0.10
2018-04-11T01:40:49.251Z,0.10
2018-04-11T01:41:49.067Z,8.50
2018-04-11T01:42:49.061Z,0.10
2018-04-11T01:43:48.907Z,0.00
2018-04-11T01:44:48.863Z,0.50
2018-04-11T01:45:48.748Z,0.10
2018-04-11T01:46:49.305Z,0.10
2018-04-11T01:47:48.575Z,0.30
2018-04-11T01:48:48.585Z,0.10
2018-04-11T01:49:48.420Z,0.10
2018-04-11T01:50:48.413Z,0.10
2018-04-11T01:51:48.285Z,0.10
2018-04-11T01:52:48.237Z,0.10
2018-04-11T01:53:48.105Z,0.00
2018-04-11T01:54:48.117Z,0.20
2018-04-11T01:55:47.952Z,0.10
2018-04-11T01:56:47.964Z,0.10
2018-04-11T01:57:47.808Z,0.10
2018-04-11T01:58:47.840Z,0.10
2018-04-11T01:59:47.635Z,0.10
2018-04-11T02:00:47.645Z,0.10
2018-04-11T02:01:47.493Z,0.10
2018-04-11T02:02:47.479Z,0.10
2018-04-11T02:03:47.365Z,0.00
2018-04-11T02:04:47.267Z,0.10
2018-04-11T02:05:47.155Z,0.10
2018-04-11T02:06:47.174Z,0.10
2018-04-11T02:07:47.041Z,0.10
2018-04-11T02:08:47.021Z,0.10
2018-04-11T02:09:46.846Z,0.20
2018-04-11T02:10:46.786Z,0.10
2018-04-11T02:11:46.697Z,0.10
2018-04-11T02:12:46.745Z,0.10
2018-04-11T02:13:46.544Z,0.10
2018-04-11T02:14:46.507Z,0.10
2018-04-11T02:15:46.375Z,0.10
2018-04-11T02:16:46.422Z,0.10
2018-04-11T02:17:46.246Z,0.10
2018-04-11T02:18:46.272Z,0.10
2018-04-11T02:19:46.085Z,0.10
2018-04-11T02:20:46.033Z,0.10
2018-04-11T02:21:45.896Z,0.10
2018-04-11T02:22:45.878Z,0.10
2018-04-11T02:23:45.769Z,0.10
2018-04-11T02:24:45.755Z,0.10
2018-04-11T02:25:45.580Z,0.20
2018-04-11T02:26:45.563Z,0.10
2018-04-11T02:27:45.440Z,0.20
2018-04-11T02:28:45.402Z,0.20
2018-04-11T02:29:45.262Z,0.40
2018-04-11T02:30:45.291Z,0.20
2018-04-11T02:31:45.120Z,0.30
2018-04-11T02:32:45.094Z,0.20
2018-04-11T02:33:44.971Z,0.20
2018-04-11T02:34:44.903Z,0.10
2018-04-11T02:35:44.794Z,0.10
2018-04-11T02:36:44.812Z,0.10
2018-04-11T02:37:44.630Z,0.10
2018-04-11T02:38:44.620Z,0.10
2018-04-11T02:39:44.526Z,0.10
2018-04-11T02:40:44.433Z,0.10
2018-04-11T02:41:44.321Z,0.10
2018-04-11T02:42:44.389Z,0.10
2018-04-11T02:43:44.160Z,0.10
2018-04-11T02:44:44.243Z,0.10
2018-04-11T02:45:44.024Z,0.30
2018-04-11T02:46:43.965Z,0.20
2018-04-11T02:47:43.853Z,0.10
2018-04-11T02:48:43.870Z,0.10
2018-04-11T02:49:43.680Z,0.20
2018-04-11T02:50:43.730Z,0.10
2018-04-11T02:51:43.530Z,0.10
2018-04-11T02:52:43.488Z,0.10
2018-04-11T02:53:43.393Z,0.10
2018-04-11T02:54:43.444Z,0.10
2018-04-11T02:55:43.296Z,0.10
2018-04-11T02:56:43.209Z,0.10
2018-04-11T02:57:43.060Z,0.20
2018-04-11T02:58:43.025Z,0.10
2018-04-11T02:59:42.893Z,0.10
2018-04-11T03:00:42.959Z,0.10
2018-04-11T03:01:42.732Z,0.10
2018-04-11T03:02:42.738Z,0.10
2018-04-11T03:03:42.586Z,0.10
2018-04-11T03:04:42.547Z,0.10
2018-04-11T03:05:42.409Z,0.10
2018-04-11T03:06:42.481Z,0.10
2018-04-11T03:07:42.263Z,0.10
2018-04-11T03:08:42.261Z,0.10
2018-04-11T03:09:42.108Z,0.10
2018-04-11T03:10:42.074Z,0.10
2018-04-11T03:11:41.959Z,0.10
2018-04-11T03:12:41.989Z,0.30
2018-04-11T03:13:41.784Z,0.10
2018-04-11T03:14:41.838Z,0.10
2018-04-11T03:15:41.662Z,0.10
2018-04-11T03:16:41.628Z,0.10
2018-04-11T03:17:41.476Z,0.10
2018-04-11T03:18:41.521Z,0.20
2018-04-11T03:19:41.309Z,0.20
2018-04-11T03:20:41.316Z,0.10
2018-04-11T03:21:41.180Z,0.10
2018-04-11T03:22:41.130Z,0.10
2018-04-11T03:23:40.987Z,0.10
2018-04-11T03:24:41.217Z,0.10
2018-04-11T03:25:40.832Z,0.10
2018-04-11T03:26:40.852Z,0.10
2018-04-11T03:27:40.694Z,0.10
2018-04-11T03:28:40.670Z,0.20
2018-04-11T03:29:40.548Z,0.10
2018-04-11T03:30:40.564Z,0.10
2018-04-11T03:31:40.373Z,0.10
2018-04-11T03:32:40.413Z,0.10
2018-04-11T03:33:40.250Z,0.20
2018-04-11T03:34:40.184Z,0.10
2018-04-11T03:35:40.047Z,0.10
2018-04-11T03:36:40.088Z,0.10
2018-04-11T03:37:39.922Z,0.10
2018-04-11T03:40:21.769Z,0.10
2018-04-11T03:41:21.792Z,0.10
2018-04-11T03:42:21.654Z,0.10
2018-04-11T04:08:44.225Z,0.20
2018-04-11T04:09:43.995Z,0.10
2018-04-11T04:12:26.267Z,0.10
2018-04-11T04:13:26.333Z,0.10
2018-04-11T04:14:26.219Z,0.10
2018-04-11T04:15:26.112Z,0.10
2018-04-11T04:16:25.952Z,0.20
2018-04-11T04:17:25.958Z,0.10
2018-04-11T04:18:25.826Z,0.10
2018-04-11T04:19:25.832Z,0.20
2018-04-11T04:20:25.655Z,0.10
2018-04-11T04:23:07.778Z,1.00
2018-04-11T04:24:07.872Z,276.70
2018-04-11T04:25:07.617Z,38.40
2018-04-11T04:26:07.681Z,76.30
2018-04-11T04:27:08.345Z,276.30
2018-04-11T04:28:07.455Z,70.30
2018-04-11T04:29:07.292Z,37.40
2018-04-11T04:30:07.418Z,32.40
2018-04-11T04:31:07.138Z,26.60
2018-04-11T04:32:07.179Z,25.30
2018-04-11T04:33:06.983Z,17.10
2018-04-11T04:34:06.987Z,15.80
2018-04-11T04:35:06.847Z,14.40
2018-04-11T04:36:06.795Z,13.40
2018-04-11T04:37:06.668Z,11.40
2018-04-11T04:38:06.706Z,11.60
2018-04-11T04:39:06.515Z,10.60
2018-04-11T04:40:06.548Z,9.90
2018-04-11T04:41:06.362Z,11.30
2018-04-11T04:42:06.329Z,8.80
2018-04-11T04:43:06.188Z,8.90
2018-04-11T04:44:06.331Z,6.80
2018-04-11T04:45:06.043Z,10.00
2018-04-11T04:46:06.171Z,10.90
2018-04-11T04:47:05.930Z,9.60
2018-04-11T04:49:47.790Z,9.10
2018-04-11T04:50:47.892Z,7.80
2018-04-11T04:51:47.645Z,9.00
2018-04-11T04:52:47.661Z,8.30
2018-04-11T04:53:47.470Z,9.40
2018-04-11T04:54:47.461Z,8.10
2018-04-11T04:55:47.305Z,9.20
2018-04-11T04:56:47.304Z,10.00
2018-04-11T04:57:47.146Z,11.90
2018-04-11T04:58:47.189Z,10.80
2018-04-11T04:59:46.997Z,10.80
2018-04-11T05:00:46.991Z,11.00
2018-04-11T05:01:46.855Z,11.60
2018-04-11T05:02:46.826Z,10.40
2018-04-11T05:03:46.682Z,10.40
2018-04-11T05:04:46.719Z,11.50
2018-04-11T05:05:46.538Z,9.60
2018-04-11T05:06:46.667Z,11.70
2018-04-11T05:07:46.355Z,8.70
2018-04-11T05:08:46.333Z,12.20
2018-04-11T05:09:46.205Z,8.00
2018-04-11T05:10:46.238Z,8.40
2018-04-11T05:11:46.057Z,9.30
2018-04-11T05:12:46.044Z,8.50
2018-04-11T05:13:46.018Z,8.70
2018-04-11T05:14:45.853Z,9.70
2018-04-11T05:15:45.726Z,9.20
2018-04-11T05:16:45.747Z,8.80
2018-04-11T05:17:45.554Z,11.70
2018-04-11T05:18:45.604Z,9.40
2018-04-11T05:19:45.401Z,9.20
2018-04-11T05:20:45.394Z,10.20
2018-04-11T05:21:45.270Z,10.20
2018-04-11T05:22:45.217Z,9.80
2018-04-11T05:23:45.090Z,9.70
2018-04-11T05:24:45.093Z,9.90
2018-04-11T05:25:44.962Z,24.00
2018-04-11T05:26:45.011Z,28.40
2018-04-11T05:27:44.820Z,13.90
2018-04-11T05:28:44.846Z,18.10
2018-04-11T05:29:44.618Z,10.00
2018-04-11T05:30:44.626Z,10.80
2018-04-11T05:31:44.459Z,10.20
2018-04-11T05:32:44.483Z,10.00
2018-04-11T05:33:44.326Z,9.90
2018-04-11T05:34:44.341Z,9.40
2018-04-11T05:35:44.157Z,11.60
2018-04-11T05:36:44.148Z,9.00
2018-04-11T05:37:43.993Z,10.80
2018-04-11T05:38:44.008Z,12.60
2018-04-11T05:39:43.830Z,8.40
2018-04-11T05:40:43.887Z,8.60
2018-04-11T05:41:43.705Z,9.90
2018-04-11T05:42:43.734Z,8.60
2018-04-11T05:43:43.529Z,9.10
2018-04-11T05:44:43.533Z,9.40
2018-04-11T05:45:43.363Z,9.50
2018-04-11T05:46:43.404Z,11.20
2018-04-11T05:47:43.197Z,9.90
2018-04-11T05:48:43.251Z,11.60
2018-04-11T05:49:43.152Z,10.70
2018-04-11T05:50:43.048Z,11.50
2018-04-11T05:51:42.884Z,11.30
2018-04-11T05:52:42.936Z,13.50
2018-04-11T05:53:42.726Z,11.20
2018-04-11T05:54:42.742Z,12.10
2018-04-11T05:55:42.572Z,12.20
2018-04-11T05:56:42.548Z,12.00
2018-04-11T05:57:42.441Z,11.80
2018-04-11T05:58:42.431Z,14.30
2018-04-11T05:59:42.243Z,12.50
2018-04-11T06:00:42.273Z,11.90
2018-04-11T06:01:42.084Z,13.40
2018-04-11T06:02:42.079Z,12.90
2018-04-11T06:03:41.940Z,12.20
2018-04-11T06:04:41.925Z,13.20
2018-04-11T06:05:41.787Z,13.20
2018-04-11T06:06:41.797Z,13.10
2018-04-11T06:07:41.640Z,12.90
2018-04-11T06:08:41.603Z,15.20
2018-04-11T06:09:41.485Z,14.40
2018-04-11T06:10:41.471Z,18.90
2018-04-11T06:11:41.319Z,15.70
2018-04-11T06:12:41.317Z,19.90
2018-04-11T06:13:41.136Z,14.90
2018-04-11T06:14:41.126Z,16.00
2018-04-11T06:15:41.010Z,16.10
2018-04-11T06:16:40.981Z,15.70
2018-04-11T06:17:40.815Z,17.40
2018-04-11T06:18:40.853Z,17.80
2018-04-11T06:19:40.660Z,17.40
2018-04-11T06:20:40.665Z,16.50
2018-04-11T06:21:40.524Z,16.70
2018-04-11T06:22:40.579Z,16.10
2018-04-11T06:23:40.350Z,16.40
2018-04-11T06:24:40.394Z,16.50
2018-04-11T06:25:40.223Z,14.90
2018-04-11T06:26:40.234Z,20.90
2018-04-11T06:27:40.045Z,17.60
2018-04-11T06:28:40.024Z,29.00
2018-04-11T06:29:39.877Z,41.20
2018-04-11T06:30:39.899Z,198.30
2018-04-11T06:31:39.756Z,131.30
2018-04-11T06:32:39.724Z,94.00
2018-04-11T06:33:39.585Z,65.00
2018-04-11T06:34:39.522Z,44.50
2018-04-11T06:35:39.401Z,66.80
2018-04-11T06:36:39.464Z,82.80
2018-04-11T06:37:39.249Z,57.20
2018-04-11T06:38:39.236Z,25.80
2018-04-11T06:39:39.089Z,20.20
2018-04-11T06:40:39.043Z,19.80
2018-04-11T06:41:38.948Z,13.90
2018-04-11T06:42:38.962Z,15.10
2018-04-11T06:43:38.762Z,14.80
2018-04-11T06:44:38.767Z,15.30
2018-04-11T06:45:38.633Z,16.10
2018-04-11T06:46:38.631Z,15.60
2018-04-11T06:47:38.455Z,16.30
2018-04-11T06:48:38.489Z,16.40
2018-04-11T06:49:38.291Z,15.90
2018-04-11T06:50:38.291Z,16.20
2018-04-11T06:51:38.171Z,18.50
2018-04-11T06:52:38.100Z,19.20
2018-04-11T06:53:37.988Z,15.70
2018-04-11T06:54:38.026Z,16.40
2018-04-11T06:55:37.826Z,18.90
2018-04-11T06:56:37.858Z,17.40
2018-04-11T06:57:37.710Z,17.00
2018-04-11T06:58:37.666Z,18.40
2018-04-11T06:59:37.500Z,16.50
2018-04-11T07:00:37.539Z,16.00
2018-04-11T07:01:37.366Z,19.20
2018-04-11T07:02:37.393Z,19.10
2018-04-11T07:03:37.185Z,16.30
2018-04-11T07:04:37.258Z,17.00
2018-04-11T07:05:37.061Z,15.30
2018-04-11T07:06:37.067Z,15.80
2018-04-11T07:07:36.884Z,15.90
2018-04-11T07:08:36.888Z,17.80
2018-04-11T07:09:36.750Z,15.60
2018-04-11T07:10:36.711Z,15.80
2018-04-11T07:11:36.556Z,18.20
2018-04-11T07:12:36.599Z,14.80
2018-04-11T07:13:36.413Z,15.00
2018-04-11T07:14:36.399Z,15.00
2018-04-11T07:15:36.232Z,15.20
2018-04-11T07:16:36.213Z,19.70
2018-04-11T07:17:36.085Z,15.70
2018-04-11T07:18:36.075Z,15.60
2018-04-11T07:19:35.929Z,15.20
2018-04-11T07:20:35.949Z,16.60
2018-04-11T07:21:35.771Z,15.20
2018-04-11T07:22:35.744Z,15.80
2018-04-11T07:23:35.638Z,15.20
2018-04-11T07:24:35.656Z,19.10
2018-04-11T07:25:35.453Z,15.10
2018-04-11T07:26:35.467Z,16.80
2018-04-11T07:27:35.287Z,14.60
2018-04-11T07:28:35.300Z,15.00
2018-04-11T07:29:35.137Z,16.00
2018-04-11T07:30:35.182Z,16.20
2018-04-11T07:31:34.987Z,14.20
2018-04-11T07:32:35.222Z,15.30
2018-04-11T07:33:34.857Z,15.10
2018-04-11T07:36:16.806Z,12.10
2018-04-11T07:37:16.794Z,12.30
2018-04-11T07:38:16.688Z,13.20
2018-04-11T07:39:16.645Z,12.40
2018-04-11T07:40:16.552Z,12.60
2018-04-11T07:41:16.558Z,13.20
2018-04-11T07:42:16.354Z,12.30
2018-04-11T07:43:16.329Z,11.70
2018-04-11T07:44:16.202Z,13.20
2018-04-11T07:45:16.290Z,11.90
2018-04-11T07:46:16.110Z,12.20
2018-04-11T07:47:16.033Z,12.70
2018-04-11T07:48:15.862Z,13.00
2018-04-11T07:49:15.893Z,13.60
2018-04-11T07:50:15.740Z,13.20
2018-04-11T07:51:15.758Z,11.40
2018-04-11T07:52:15.559Z,12.80
2018-04-11T07:53:15.569Z,11.50
2018-04-11T07:54:15.432Z,13.00
2018-04-11T07:55:15.440Z,14.10
2018-04-11T07:56:15.232Z,10.50
2018-04-11T07:57:15.164Z,12.10
2018-04-11T07:58:15.077Z,10.80
2018-04-11T07:59:15.110Z,11.80
2018-04-11T08:00:14.933Z,12.10
2018-04-11T08:01:14.926Z,13.30
2018-04-11T08:02:14.768Z,12.20
2018-04-11T08:03:14.882Z,10.50
2018-04-11T08:04:14.637Z,13.90
2018-04-11T08:05:14.667Z,13.30
2018-04-11T08:06:14.451Z,12.80
2018-04-11T08:07:15.393Z,14.30
2018-04-11T08:08:14.287Z,14.50
2018-04-11T08:09:14.347Z,11.60
2018-04-11T08:10:14.147Z,13.50
2018-04-11T08:11:14.153Z,11.90
2018-04-11T08:12:13.970Z,13.60
2018-04-11T08:13:13.964Z,13.10
2018-04-11T08:14:13.810Z,11.90
2018-04-11T08:15:13.796Z,13.20
2018-04-11T08:16:13.677Z,12.00
2018-04-11T08:17:13.687Z,14.10
2018-04-11T08:18:13.500Z,13.10
2018-04-11T08:19:13.485Z,13.70
2018-04-11T08:20:13.361Z,13.20
2018-04-11T08:21:13.388Z,12.20
2018-04-11T08:22:13.181Z,14.90
2018-04-11T08:23:13.252Z,10.90
2018-04-11T08:24:13.065Z,15.40
2018-04-11T08:25:13.050Z,13.50
2018-04-11T08:26:12.863Z,14.80
2018-04-11T08:27:12.833Z,12.90
2018-04-11T08:28:12.721Z,13.00
2018-04-11T08:29:12.672Z,13.90
2018-04-11T08:30:12.863Z,13.60
2018-04-11T08:31:12.535Z,16.00
2018-04-11T08:32:12.416Z,14.20
2018-04-11T08:33:12.527Z,17.10
2018-04-11T08:34:12.245Z,16.60
2018-04-11T08:35:12.173Z,18.60
2018-04-11T08:36:12.471Z,18.30
2018-04-11T08:37:12.014Z,19.60
2018-04-11T08:38:11.919Z,20.60
2018-04-11T08:39:11.927Z,20.20
2018-04-11T08:40:11.853Z,19.50
2018-04-11T08:41:11.792Z,18.30
2018-04-11T08:42:11.603Z,21.00
2018-04-11T08:43:11.535Z,17.20
2018-04-11T08:44:11.448Z,18.20
2018-04-11T08:45:11.805Z,19.70
2018-04-11T08:46:11.379Z,16.40
2018-04-11T08:48:53.325Z,16.90
2018-04-11T08:49:53.314Z,16.50
2018-04-11T08:50:53.199Z,19.40
2018-04-11T08:51:53.221Z,17.50
2018-04-11T08:52:53.032Z,16.70
2018-04-11T08:53:53.033Z,17.80
2018-04-11T08:54:52.864Z,16.50
2018-04-11T08:55:52.807Z,14.00
2018-04-11T08:56:52.707Z,15.80
2018-04-11T08:57:52.755Z,13.80
2018-04-11T08:58:52.554Z,13.50
2018-04-11T08:59:52.564Z,17.70
2018-04-11T09:00:52.420Z,14.60
2018-04-11T09:01:52.368Z,13.50
2018-04-11T09:02:52.254Z,16.00
2018-04-11T09:03:52.322Z,17.50
2018-04-11T09:04:52.133Z,12.70
2018-04-11T09:05:52.034Z,15.00
2018-04-11T09:06:51.951Z,17.60
2018-04-11T09:07:51.980Z,12.50
2018-04-11T09:08:51.949Z,15.90
2018-04-11T09:09:51.785Z,14.30
2018-04-11T09:10:51.624Z,13.90
2018-04-11T09:11:51.556Z,11.70
2018-04-11T09:12:51.459Z,16.10
2018-04-11T09:13:51.393Z,13.80
2018-04-11T09:14:51.328Z,14.50
2018-04-11T09:15:51.378Z,12.10
2018-04-11T09:16:51.632Z,12.30
2018-04-11T09:17:51.145Z,13.20
2018-04-11T09:18:50.982Z,13.60
2018-04-11T09:19:50.911Z,16.10
2018-04-11T09:20:50.845Z,13.50
2018-04-11T09:21:50.799Z,14.80
2018-04-11T09:22:50.661Z,13.20
2018-04-11T09:23:50.669Z,15.30
2018-04-11T09:24:50.501Z,14.70
2018-04-11T09:25:50.451Z,13.40
2018-04-11T09:26:50.375Z,12.60
2018-04-11T09:27:50.385Z,13.70
2018-04-11T09:28:50.187Z,13.80
2018-04-11T09:29:50.119Z,11.60
2018-04-11T09:30:50.043Z,13.50
2018-04-11T09:31:50.063Z,12.40
2018-04-11T09:32:49.940Z,15.00
2018-04-11T09:33:49.939Z,14.20
2018-04-11T09:34:49.707Z,13.10
2018-04-11T09:35:50.432Z,12.40
2018-04-11T09:36:49.589Z,12.00
2018-04-11T09:37:49.580Z,13.30
2018-04-11T09:38:49.475Z,12.70
2018-04-11T09:39:49.331Z,14.50
2018-04-11T09:40:49.240Z,11.80
2018-04-11T09:41:49.255Z,13.70
2018-04-11T09:42:49.101Z,12.10
2018-04-11T09:43:49.009Z,11.90
2018-04-11T09:44:48.920Z,13.70
2018-04-11T09:45:48.855Z,13.40
2018-04-11T09:46:48.771Z,12.40
2018-04-11T09:47:48.716Z,14.60
2018-04-11T09:48:49.452Z,13.40
2018-04-11T09:49:48.551Z,12.30
2018-04-11T09:50:48.463Z,16.00
2018-04-11T09:51:48.458Z,14.20
2018-04-11T09:52:48.304Z,13.70
2018-04-11T09:53:48.242Z,15.20
2018-04-11T09:54:48.130Z,13.90
2018-04-11T09:55:48.085Z,13.50
2018-04-11T09:56:47.981Z,14.30
2018-04-11T09:57:47.925Z,13.20
2018-04-11T09:58:47.817Z,15.50
2018-04-11T09:59:47.749Z,14.80
2018-04-11T10:00:47.681Z,14.10
2018-04-11T10:01:47.593Z,15.00
2018-04-11T10:02:47.530Z,18.80
2018-04-11T10:03:47.463Z,15.70
2018-04-11T10:04:47.342Z,15.90
2018-04-11T10:05:47.290Z,14.90
2018-04-11T10:06:47.182Z,15.80
2018-04-11T10:07:47.127Z,16.90
2018-04-11T10:08:47.056Z,16.10
2018-04-11T10:09:46.965Z,15.60
2018-04-11T10:10:46.876Z,14.70
2018-04-11T10:11:46.861Z,16.00
2018-04-11T10:12:46.742Z,16.00
2018-04-11T10:13:46.640Z,18.10
2018-04-11T10:14:46.592Z,18.10
2018-04-11T10:15:46.494Z,21.00
2018-04-11T10:16:46.397Z,18.20
2018-04-11T10:17:46.327Z,18.60
2018-04-11T10:18:46.264Z,17.60
2018-04-11T10:19:46.186Z,18.50
2018-04-11T10:20:46.107Z,17.60
2018-04-11T10:21:46.036Z,17.70
2018-04-11T10:22:45.946Z,21.90
2018-04-11T10:23:45.863Z,19.50
2018-04-11T10:24:45.801Z,19.10
2018-04-11T10:25:45.700Z,19.50
2018-04-11T10:26:45.625Z,18.80
2018-04-11T10:27:45.547Z,19.00
2018-04-11T10:28:45.465Z,19.40
2018-04-11T10:29:45.397Z,21.70
2018-04-11T10:30:45.308Z,19.10
2018-04-11T10:31:45.252Z,23.50
2018-04-11T10:32:45.187Z,19.90
2018-04-11T10:33:45.125Z,20.40
2018-04-11T10:34:44.999Z,20.30
2018-04-11T10:35:44.954Z,19.00
2018-04-11T10:36:44.854Z,21.40
2018-04-11T10:37:44.775Z,24.20
2018-04-11T10:38:44.689Z,22.10
2018-04-11T10:39:44.637Z,21.80
2018-04-11T10:40:44.513Z,23.30
2018-04-11T10:41:44.498Z,24.60
2018-04-11T10:42:44.373Z,25.50
2018-04-11T10:43:44.298Z,26.00
2018-04-11T10:44:44.224Z,25.50
2018-04-11T10:45:44.148Z,27.90
2018-04-11T10:46:44.051Z,29.40
2018-04-11T10:47:44.088Z,28.70
2018-04-11T10:48:43.900Z,28.90
2018-04-11T10:49:43.831Z,26.70
2018-04-11T10:50:43.743Z,27.50
2018-04-11T10:51:43.683Z,28.70
2018-04-11T10:52:43.640Z,29.90
2018-04-11T10:53:43.530Z,29.80
2018-04-11T10:54:43.503Z,33.40
2018-04-11T10:55:43.364Z,28.80
2018-04-11T10:56:43.330Z,27.70
2018-04-11T10:57:43.221Z,31.10
2018-04-11T10:58:43.094Z,27.90
2018-04-11T10:59:43.041Z,28.90
2018-04-11T11:00:42.942Z,27.30
2018-04-11T11:01:42.887Z,26.60
2018-04-11T11:02:42.792Z,29.80
2018-04-11T11:03:42.726Z,28.00
2018-04-11T11:04:42.626Z,26.90
2018-04-11T11:05:42.567Z,29.40
2018-04-11T11:06:42.549Z,29.60
2018-04-11T11:07:42.424Z,29.00
2018-04-11T11:08:42.336Z,28.00
2018-04-11T11:09:42.253Z,29.20
2018-04-11T11:10:42.164Z,32.70
2018-04-11T11:11:42.116Z,31.20
2018-04-11T11:12:42.018Z,28.70
2018-04-11T11:13:41.937Z,30.10
2018-04-11T11:14:41.857Z,32.30
2018-04-11T11:15:41.795Z,29.10
2018-04-11T11:16:41.681Z,34.10
2018-04-11T11:17:41.641Z,30.70
2018-04-11T11:18:41.525Z,31.50
2018-04-11T11:19:41.456Z,32.20
2018-04-11T11:20:41.358Z,36.60
2018-04-11T11:21:41.298Z,33.10
2018-04-11T11:22:41.236Z,34.90
2018-04-11T11:23:41.242Z,34.10
2018-04-11T11:24:41.046Z,34.80
2018-04-11T11:25:41.004Z,33.70
2018-04-11T11:26:41.432Z,32.10
2018-04-11T11:27:40.852Z,34.60
2018-04-11T11:28:40.736Z,35.50
2018-04-11T11:29:40.706Z,36.30
2018-04-11T11:30:40.605Z,36.50
2018-04-11T11:31:40.514Z,35.50
2018-04-11T11:32:40.447Z,44.50
2018-04-11T11:33:40.380Z,47.30
2018-04-11T11:34:40.277Z,46.60
2018-04-11T11:35:40.220Z,51.70
2018-04-11T11:36:40.107Z,44.60
2018-04-11T11:37:40.049Z,50.20
2018-04-11T11:38:39.971Z,47.90
2018-04-11T11:39:39.886Z,44.50
2018-04-11T11:40:39.793Z,40.50
2018-04-11T11:41:39.727Z,46.60
2018-04-11T11:42:39.634Z,41.30
2018-04-11T11:43:39.668Z,45.50
2018-04-11T11:44:39.480Z,45.70
2018-04-11T11:45:39.465Z,45.10
2018-04-11T11:46:39.331Z,48.20
2018-04-11T11:47:39.325Z,48.00
2018-04-11T11:48:39.161Z,45.50
2018-04-11T11:49:39.213Z,46.80
2018-04-11T11:50:39.083Z,53.00
2018-04-11T11:51:39.060Z,49.10
2018-04-11T11:52:38.856Z,51.00
2018-04-11T11:53:38.866Z,57.10
2018-04-11T11:54:38.697Z,56.60
2018-04-11T11:55:38.713Z,50.90
2018-04-11T11:56:38.545Z,57.60
2018-04-11T11:57:38.572Z,63.20
2018-04-11T11:58:38.372Z,60.60
2018-04-11T11:59:38.595Z,61.90
2018-04-11T12:00:38.230Z,60.00
2018-04-11T12:01:38.194Z,56.20
2018-04-11T12:02:38.182Z,62.70
2018-04-11T12:03:38.121Z,57.50
2018-04-11T12:04:37.922Z,55.50
2018-04-11T12:05:38.060Z,51.50
2018-04-11T12:06:37.773Z,55.20
2018-04-11T12:07:37.720Z,52.60
2018-04-11T12:08:37.591Z,57.10
2018-04-11T12:09:37.557Z,55.80
2018-04-11T12:10:37.454Z,58.30
2018-04-11T12:11:37.392Z,60.90
2018-04-11T12:12:37.283Z,61.00
2018-04-11T12:13:37.249Z,60.30
2018-04-11T12:14:37.165Z,59.00
2018-04-11T12:15:37.165Z,57.00
2018-04-11T12:16:36.962Z,61.90
2018-04-11T12:17:36.974Z,61.10
2018-04-11T12:18:36.793Z,57.00
2018-04-11T12:19:36.843Z,55.40
2018-04-11T12:20:36.664Z,57.40
2018-04-11T12:21:36.691Z,53.70
2018-04-11T12:22:36.528Z,56.10
2018-04-11T12:23:36.503Z,59.40
2018-04-11T12:24:36.333Z,57.40
2018-04-11T12:25:36.349Z,57.90
2018-04-11T12:26:36.206Z,52.80
2018-04-11T12:27:36.107Z,54.80
2018-04-11T12:28:36.040Z,52.20
2018-04-11T12:29:36.053Z,58.40
2018-04-11T12:30:35.896Z,54.50
2018-04-11T12:31:35.804Z,54.20
2018-04-11T12:32:35.784Z,58.20
2018-04-11T12:33:35.745Z,52.30
2018-04-11T12:34:35.548Z,50.70
2018-04-11T12:35:35.556Z,54.40
2018-04-11T12:36:35.473Z,60.80
2018-04-11T12:37:35.408Z,60.30
2018-04-11T12:38:35.246Z,58.90
2018-04-11T12:39:35.274Z,65.30
2018-04-11T12:40:35.128Z,67.50
2018-04-11T12:41:35.075Z,65.20
2018-04-11T12:42:34.934Z,62.60
2018-04-11T12:43:34.884Z,61.40
2018-04-11T12:44:34.802Z,66.00
2018-04-11T12:45:34.888Z,63.80
2018-04-11T12:46:34.615Z,58.50
2018-04-11T12:49:16.908Z,56.40
2018-04-11T12:50:16.966Z,60.20
2018-04-11T12:51:16.757Z,58.80
2018-04-11T12:52:16.731Z,59.10
2018-04-11T12:53:16.595Z,57.40
2018-04-11T12:54:16.645Z,56.50
2018-04-11T12:55:16.433Z,60.80
2018-04-11T12:56:16.478Z,58.20
2018-04-11T12:57:16.283Z,56.50
2018-04-11T12:58:16.247Z,56.60
2018-04-11T12:59:16.112Z,55.40
2018-04-11T13:00:16.199Z,58.60
2018-04-11T13:01:15.974Z,57.10
2018-04-11T13:02:15.974Z,56.90
2018-04-11T13:03:15.822Z,60.60
2018-04-11T13:04:15.776Z,53.20
2018-04-11T13:05:15.642Z,56.30
2018-04-11T13:06:15.726Z,61.10
2018-04-11T13:07:15.506Z,55.10
2018-04-11T13:08:15.496Z,49.80
2018-04-11T13:09:15.328Z,53.20
2018-04-11T13:10:15.292Z,57.00
2018-04-11T13:11:15.197Z,53.50
2018-04-11T13:12:15.227Z,54.70
2018-04-11T13:13:15.020Z,51.40
2018-04-11T13:14:15.020Z,53.90
2018-04-11T13:15:14.870Z,54.00
2018-04-11T13:16:14.821Z,49.50
2018-04-11T13:17:14.774Z,48.10
2018-04-11T13:18:14.670Z,51.00
2018-04-11T13:19:14.554Z,48.30
2018-04-11T13:20:14.661Z,50.20
2018-04-11T13:21:14.391Z,51.90
2018-04-11T13:22:14.402Z,51.60
2018-04-11T13:23:14.259Z,50.50
2018-04-11T13:24:15.085Z,53.60
2018-04-11T13:25:14.110Z,47.60
2018-04-11T13:26:14.097Z,52.50
2018-04-11T13:27:13.943Z,51.20
2018-04-11T13:28:13.992Z,48.50
2018-04-11T13:29:13.786Z,45.50
2018-04-11T13:30:13.793Z,45.40
2018-04-11T13:31:13.631Z,46.70
2018-04-11T13:32:13.641Z,45.60
2018-04-11T13:33:13.473Z,45.40
2018-04-11T13:34:13.631Z,46.60
2018-04-11T13:35:13.331Z,47.70
2018-04-11T13:36:13.835Z,48.90
2018-04-11T13:37:13.541Z,45.90
2018-04-11T13:38:13.193Z,50.60